Aérodrome :
LOGIN :

S'inscrire | Disclaimer

   EN    FR    IT 

 










Légende :    VFR   VFR Marginal   IFR   IFR Intensif   IFR Très Intensif
Visi : 
Plafond : 
>= 8 km
>= 3000ft
5 à 8 km
1000 à 3000 ft
1500m à 5 km
500 à 1000 ft
800 à 1500m
200 à 500 ft
< 800m
< 200 ft
Symboles :   Orages  Brouillard  Fortes neiges  Fortes précipitations  Vent > 20 kt
SIGMETs :   Divers  Orages  Givrage  Turbulence  Onde Orograph.  Cendres Volcan.






- Altitude de l'aérodrome : 404 ft
- Code IATA : WRO


EPWR - Wroclaw

DERNIER METAR :
  • 121030Z 25007KT 9999 BKN023 08/06 Q1009

METARs EXPIRÉS :
  • 121000Z 26006KT 9999 -RA SCT019 BKN025 08/06 Q1009
  • 120930Z 26005KT 9999 FEW015 BKN020 09/06 Q1010
  • 120900Z 20006KT 170V230 9999 FEW017 BKN026 10/06 Q1009
  • 120830Z 19008KT 9999 BKN029 10/06 Q1009
  • 120800Z 19011KT 9999 BKN028 10/06 Q1009

TAF TAF EPWR
Valide du 12 à 09h jusqu'au 13 à 09h UTC


120830Z 1209/1309 18011KT 9999 BKN025
TEMPO 1210/1309 3000 RA BR BKN004 BKN010



MET'MAP, la Météo Aéronautique d'un coup d'oeil ! - Copyright ORBIFLY Décembre 2007 - Disclaimer

ORBIFLY MET'MAP TEAM :

Programmation & Développement : Alexandra Zaïnal
Conception & Développement : Baudouin d'Aumeries
Co-Programmation & Développement : Marc-Olivier Méhu
Soutien technique & logistique : Manuel Goepfert

Contact : metmap@orbifly.com




SOURCES & CREDITS :

   NOAA